createdAt,value
2023-07-08T00:00:07.110Z,11.13
2023-07-08T00:03:31.061Z,11.38
2023-07-08T00:06:56.095Z,10.90
2023-07-08T00:10:43.080Z,10.52
2023-07-08T00:14:09.360Z,12.68
2023-07-08T00:17:33.125Z,11.15
2023-07-08T00:21:03.099Z,10.23
2023-07-08T00:24:28.092Z,9.50
2023-07-08T00:27:52.117Z,10.73
2023-07-08T00:31:17.156Z,9.38
2023-07-08T00:34:41.123Z,8.32
2023-07-08T00:38:10.096Z,8.93
2023-07-08T00:41:41.140Z,10.65
2023-07-08T00:45:06.128Z,7.85
2023-07-08T00:48:46.108Z,9.70
2023-07-08T00:52:11.136Z,12.50
2023-07-08T00:55:35.115Z,7.20
2023-07-08T00:59:13.177Z,9.45
2023-07-08T01:02:39.153Z,10.68
2023-07-08T01:06:06.155Z,9.55
2023-07-08T01:09:32.082Z,9.98
2023-07-08T01:13:02.145Z,7.07
2023-07-08T01:16:28.220Z,7.60
2023-07-08T01:19:52.187Z,11.32
2023-07-08T01:23:17.148Z,10.82
2023-07-08T01:26:42.137Z,6.90
2023-07-08T01:30:07.247Z,7.93
2023-07-08T01:33:37.147Z,7.78
2023-07-08T01:37:04.194Z,7.90
2023-07-08T01:40:33.139Z,7.90
2023-07-08T01:43:57.200Z,6.57
2023-07-08T01:47:35.184Z,7.20
2023-07-08T01:51:07.174Z,7.60
2023-07-08T01:54:25.852Z,8.57
2023-07-08T01:57:43.157Z,6.20
2023-07-08T02:01:07.221Z,9.43
2023-07-08T02:04:31.230Z,8.43
2023-07-08T02:07:55.189Z,7.80
2023-07-08T02:11:20.373Z,8.52
2023-07-08T02:14:44.213Z,9.30
2023-07-08T02:18:08.208Z,9.73
2023-07-08T02:21:33.154Z,8.98
2023-07-08T02:24:58.249Z,8.93
2023-07-08T02:28:22.221Z,7.60
2023-07-08T02:31:46.260Z,7.70
2023-07-08T02:35:10.173Z,7.15
2023-07-08T02:38:35.202Z,6.03
2023-07-08T02:42:00.219Z,5.15
2023-07-08T02:45:26.405Z,8.07
2023-07-08T02:48:51.195Z,6.03
2023-07-08T02:52:15.272Z,7.80
2023-07-08T02:55:33.511Z,7.15
2023-07-08T02:58:52.295Z,6.20
2023-07-08T03:02:17.274Z,6.32
2023-07-08T03:05:43.274Z,7.45
2023-07-08T03:09:07.263Z,6.40
2023-07-08T03:12:32.227Z,6.88
2023-07-08T03:15:56.214Z,7.63
2023-07-08T03:19:24.416Z,11.07
2023-07-08T03:22:49.255Z,10.52
2023-07-08T03:26:14.277Z,7.72
2023-07-08T03:29:39.236Z,6.70
2023-07-08T03:33:04.383Z,7.80
2023-07-08T03:36:34.258Z,7.93
2023-07-08T03:39:59.313Z,8.10
2023-07-08T03:43:24.252Z,5.45
2023-07-08T03:46:52.426Z,7.43
2023-07-08T03:50:20.251Z,7.07
2023-07-08T03:53:45.250Z,8.70
2023-07-08T03:57:03.973Z,7.95
2023-07-08T04:00:24.383Z,8.32
2023-07-08T04:03:50.334Z,7.18
2023-07-08T04:07:14.451Z,6.10
2023-07-08T04:10:39.232Z,6.53
2023-07-08T04:14:03.610Z,5.43
2023-07-08T04:17:32.272Z,4.75
2023-07-08T04:24:30.299Z,6.32
2023-07-08T04:27:54.280Z,8.07
2023-07-08T04:31:18.474Z,6.13
2023-07-08T04:34:42.395Z,6.53
2023-07-08T04:38:07.231Z,5.45
2023-07-08T04:41:32.353Z,6.57
2023-07-08T04:44:58.251Z,7.07
2023-07-08T04:48:23.281Z,6.30
2023-07-08T04:51:47.219Z,6.47
2023-07-08T04:55:12.276Z,7.22
2023-07-08T04:58:29.895Z,7.13
2023-07-08T05:01:50.440Z,5.65
2023-07-08T05:05:15.271Z,7.82
2023-07-08T05:08:39.315Z,4.22
2023-07-08T05:12:03.237Z,5.32
2023-07-08T05:15:28.276Z,5.55
2023-07-08T05:18:52.220Z,6.18
2023-07-08T05:22:17.391Z,6.13
2023-07-08T05:25:42.268Z,8.10
2023-07-08T05:29:07.296Z,7.13
2023-07-08T05:32:31.339Z,6.47
2023-07-08T05:35:55.246Z,9.75
2023-07-08T05:39:19.290Z,7.32
2023-07-08T05:42:44.223Z,6.78
2023-07-08T05:46:16.279Z,9.02
2023-07-08T05:49:40.270Z,10.48
2023-07-08T05:53:05.222Z,9.90
2023-07-08T05:56:29.238Z,11.80
2023-07-08T05:59:47.928Z,22.88
2023-07-08T06:03:07.321Z,20.17
2023-07-08T06:06:32.229Z,15.50
2023-07-08T06:09:57.352Z,14.23
2023-07-08T06:13:22.244Z,12.90
2023-07-08T06:16:47.631Z,15.45
2023-07-08T06:20:13.255Z,18.95
2023-07-08T06:23:37.241Z,18.33
2023-07-08T06:27:02.231Z,20.95
2023-07-08T06:30:26.249Z,20.33
2023-07-08T06:33:50.243Z,19.77
2023-07-08T06:37:15.365Z,32.05
2023-07-08T06:40:40.245Z,29.42
2023-07-08T06:44:05.295Z,25.35
2023-07-08T06:47:30.248Z,22.20
2023-07-08T06:50:54.418Z,16.10
2023-07-08T06:54:22.253Z,18.27
2023-07-08T06:57:50.586Z,16.83
2023-07-08T07:01:07.880Z,22.40
2023-07-08T07:04:26.286Z,19.58
2023-07-08T07:07:51.223Z,19.88
2023-07-08T07:11:16.492Z,18.25
2023-07-08T07:18:09.508Z,35.83
2023-07-08T07:21:34.256Z,34.60
2023-07-08T07:24:59.392Z,35.10
2023-07-08T07:28:23.255Z,22.90
2023-07-08T07:31:49.380Z,21.75
2023-07-08T07:35:14.251Z,26.15
2023-07-08T07:38:38.311Z,24.38
2023-07-08T07:42:03.237Z,26.17
2023-07-08T07:45:31.277Z,25.33
2023-07-08T07:48:55.240Z,26.20
2023-07-08T07:52:21.277Z,21.35
2023-07-08T07:55:45.261Z,18.40
2023-07-08T07:59:09.310Z,17.92
2023-07-08T08:02:28.949Z,21.83
2023-07-08T08:05:47.326Z,19.50
2023-07-08T08:09:11.274Z,16.95
2023-07-08T08:12:44.348Z,16.95
2023-07-08T08:16:17.286Z,21.17
2023-07-08T08:19:42.315Z,53.05
2023-07-08T08:23:06.329Z,56.50
2023-07-08T08:26:31.451Z,56.78
2023-07-08T08:29:56.307Z,55.35
2023-07-08T08:33:21.314Z,56.42
2023-07-08T08:36:46.387Z,40.30
2023-07-08T08:40:11.299Z,40.90
2023-07-08T08:43:39.894Z,64.82
2023-07-08T08:47:40.378Z,51.35
2023-07-08T08:51:26.474Z,51.72
2023-07-08T08:55:00.302Z,46.45
2023-07-08T08:58:34.341Z,46.35
2023-07-08T09:01:58.363Z,47.10
2023-07-08T09:05:25.331Z,38.30
2023-07-08T09:08:51.314Z,46.67
2023-07-08T09:12:21.354Z,49.53
2023-07-08T09:15:46.332Z,53.13
2023-07-08T09:19:36.343Z,44.22
2023-07-08T09:23:27.287Z,42.88
2023-07-08T09:26:52.396Z,72.53
2023-07-08T09:30:17.352Z,110.95
2023-07-08T09:33:43.344Z,98.28
2023-07-08T09:37:08.318Z,92.07
2023-07-08T09:40:35.348Z,72.80
2023-07-08T09:43:59.299Z,69.07
2023-07-08T09:47:41.721Z,56.55
2023-07-08T09:51:09.339Z,77.47
2023-07-08T09:54:34.383Z,54.03
2023-07-08T09:58:02.015Z,46.15
2023-07-08T10:01:40.466Z,40.72
2023-07-08T10:05:09.325Z,44.55
2023-07-08T10:08:37.481Z,44.22
2023-07-08T10:12:10.414Z,38.50
2023-07-08T10:15:45.366Z,22.80
2023-07-08T10:19:10.339Z,32.28
2023-07-08T10:22:54.354Z,35.53
2023-07-08T10:26:29.349Z,31.35
2023-07-08T10:30:13.347Z,40.25
2023-07-08T10:34:18.369Z,37.10
2023-07-08T10:37:52.360Z,29.63
2023-07-08T10:41:42.359Z,26.23
2023-07-08T10:45:47.426Z,28.10
2023-07-08T10:49:41.356Z,22.02
2023-07-08T10:53:18.388Z,19.38
2023-07-08T10:57:04.350Z,21.80
2023-07-08T11:00:49.385Z,30.48
2023-07-08T11:04:22.321Z,27.63
2023-07-08T11:08:01.437Z,24.67
2023-07-08T11:11:41.508Z,29.38
2023-07-08T11:15:08.390Z,34.35
2023-07-08T11:18:56.352Z,39.42
2023-07-08T11:22:27.358Z,22.70
2023-07-08T11:25:51.352Z,17.42
2023-07-08T11:29:17.366Z,18.70
2023-07-08T11:32:44.383Z,17.02
2023-07-08T11:36:10.410Z,21.42
2023-07-08T11:39:49.422Z,24.90
2023-07-08T11:43:22.353Z,31.13
2023-07-08T11:46:48.405Z,31.80
2023-07-08T11:50:13.376Z,25.58
2023-07-08T11:53:51.439Z,25.83
2023-07-08T11:57:21.399Z,27.15
2023-07-08T12:00:48.399Z,37.03
2023-07-08T12:04:37.417Z,40.63
2023-07-08T12:08:03.347Z,39.95
2023-07-08T12:11:28.431Z,33.45
2023-07-08T12:14:45.982Z,29.27
2023-07-08T12:18:06.457Z,24.63
2023-07-08T12:21:31.538Z,29.88
2023-07-08T12:24:57.393Z,32.95
2023-07-08T12:28:21.377Z,43.08
2023-07-08T12:31:47.393Z,45.88
2023-07-08T12:35:15.508Z,47.88
2023-07-08T12:38:44.380Z,36.25
2023-07-08T12:42:09.430Z,39.50
2023-07-08T12:45:37.384Z,31.98
2023-07-08T12:49:01.429Z,40.15
2023-07-08T12:52:36.372Z,28.95
2023-07-08T12:56:01.789Z,31.88
2023-07-08T12:59:32.462Z,45.58
2023-07-08T13:02:56.437Z,48.67
2023-07-08T13:06:21.423Z,36.47
2023-07-08T13:10:00.430Z,53.03
2023-07-08T13:13:32.544Z,80.38
2023-07-08T13:16:51.805Z,68.70
2023-07-08T13:20:18.443Z,35.70
2023-07-08T13:23:43.405Z,61.65
2023-07-08T13:27:07.559Z,41.95
2023-07-08T13:30:35.409Z,38.63
2023-07-08T13:34:08.390Z,57.00
2023-07-08T13:37:34.411Z,54.47
2023-07-08T13:41:03.656Z,48.38
2023-07-08T13:44:27.420Z,36.83
2023-07-08T13:47:52.500Z,33.20
2023-07-08T13:51:24.424Z,70.90
2023-07-08T13:54:58.455Z,97.82
2023-07-08T13:58:22.451Z,61.65
2023-07-08T14:01:47.526Z,23.50
2023-07-08T14:05:13.553Z,75.78
2023-07-08T14:08:37.447Z,35.50
2023-07-08T14:12:01.438Z,116.82
2023-07-08T14:15:25.617Z,55.15
2023-07-08T14:18:44.027Z,62.40
2023-07-08T14:22:13.450Z,26.90
2023-07-08T14:25:38.425Z,33.25
2023-07-08T14:29:02.442Z,30.80
2023-07-08T14:32:41.476Z,17.30
2023-07-08T14:36:06.420Z,17.25
2023-07-08T14:39:33.470Z,26.33
2023-07-08T14:42:58.503Z,22.63
2023-07-08T14:46:25.614Z,37.72
2023-07-08T14:49:49.562Z,26.33
2023-07-08T14:53:14.507Z,20.50
2023-07-08T14:56:38.579Z,18.83
2023-07-08T15:00:03.522Z,14.43
2023-07-08T15:03:27.547Z,14.68
2023-07-08T15:06:52.438Z,27.80
2023-07-08T15:10:17.462Z,18.83
2023-07-08T15:13:44.584Z,13.38
2023-07-08T15:17:09.505Z,11.60
2023-07-08T15:20:33.450Z,14.65
2023-07-08T15:23:58.648Z,9.20
2023-07-08T15:27:27.486Z,9.55
2023-07-08T15:30:52.498Z,12.32
2023-07-08T15:34:17.488Z,9.05
2023-07-08T15:37:41.473Z,8.45
2023-07-08T15:41:06.460Z,9.77
2023-07-08T15:44:31.503Z,10.52
2023-07-08T15:47:56.488Z,8.73
2023-07-08T15:51:21.639Z,8.80
2023-07-08T15:54:46.461Z,10.15
2023-07-08T15:58:22.519Z,9.32
2023-07-08T16:01:46.490Z,9.32
2023-07-08T16:05:10.577Z,8.30
2023-07-08T16:08:34.480Z,8.60
2023-07-08T16:11:53.538Z,9.25
2023-07-08T16:15:17.517Z,9.88
2023-07-08T16:18:42.638Z,8.63
2023-07-08T16:22:07.467Z,9.90
2023-07-08T16:25:34.500Z,10.43
2023-07-08T16:29:02.451Z,11.55
2023-07-08T16:32:34.380Z,13.10
2023-07-08T16:35:58.493Z,8.90
2023-07-08T16:39:22.512Z,10.57
2023-07-08T16:42:47.495Z,24.70
2023-07-08T16:46:12.569Z,68.07
2023-07-08T16:49:36.497Z,24.83
2023-07-08T16:53:01.603Z,65.13
2023-07-08T16:56:37.264Z,28.73
2023-07-08T17:00:02.524Z,71.10
2023-07-08T17:03:31.640Z,72.95
2023-07-08T17:06:56.603Z,57.90
2023-07-08T17:10:21.497Z,107.28
2023-07-08T17:13:46.538Z,55.17
2023-07-08T17:17:11.497Z,52.85
2023-07-08T17:20:40.526Z,37.85
2023-07-08T17:23:58.121Z,52.78
2023-07-08T17:27:17.578Z,24.70
2023-07-08T17:30:42.494Z,30.75
2023-07-08T17:34:11.490Z,12.73
2023-07-08T17:37:35.540Z,29.70
2023-07-08T17:40:59.717Z,14.90
2023-07-08T17:44:26.521Z,15.73
2023-07-08T17:47:51.503Z,18.08
2023-07-08T17:51:15.551Z,12.88
2023-07-08T17:54:43.416Z,10.95
2023-07-08T17:58:09.509Z,9.65
2023-07-08T18:01:33.559Z,5.15
2023-07-08T18:04:57.609Z,4.22
2023-07-08T18:08:22.525Z,4.85
2023-07-08T18:11:46.563Z,3.85
2023-07-08T18:15:12.497Z,3.83
2023-07-08T18:18:37.526Z,3.67
2023-07-08T18:22:02.496Z,3.92
2023-07-08T18:25:52.512Z,4.00
2023-07-08T18:29:19.506Z,3.83
2023-07-08T18:32:44.562Z,4.18
2023-07-08T18:36:09.542Z,5.28
2023-07-08T18:39:33.562Z,6.22
2023-07-08T18:42:59.549Z,6.85
2023-07-08T18:46:28.599Z,12.38
2023-07-08T18:49:52.560Z,6.95
2023-07-08T18:53:17.628Z,6.95
2023-07-08T18:56:41.561Z,7.47
2023-07-08T19:00:05.565Z,6.82
2023-07-08T19:03:48.692Z,6.68
2023-07-08T19:10:39.576Z,5.47
2023-07-08T19:14:06.581Z,5.82
2023-07-08T19:17:30.961Z,5.53
2023-07-08T19:20:58.524Z,5.40
2023-07-08T19:24:37.927Z,5.07
2023-07-08T19:28:02.721Z,6.40
2023-07-08T19:31:40.521Z,5.85
2023-07-08T19:35:05.578Z,5.53
2023-07-08T19:38:31.518Z,6.75
2023-07-08T19:41:56.548Z,8.32
2023-07-08T19:45:21.593Z,5.25
2023-07-08T19:48:49.610Z,6.20
2023-07-08T19:52:14.557Z,4.68
2023-07-08T19:55:39.548Z,4.13
2023-07-08T19:59:03.562Z,5.78
2023-07-08T20:02:34.576Z,5.57
2023-07-08T20:05:59.785Z,6.50
2023-07-08T20:09:25.564Z,3.53
2023-07-08T20:12:49.584Z,5.38
2023-07-08T20:16:14.621Z,5.28
2023-07-08T20:19:39.568Z,4.75
2023-07-08T20:23:03.559Z,3.67
2023-07-08T20:26:46.572Z,5.60
2023-07-08T20:33:22.598Z,4.57
2023-07-08T20:36:46.572Z,4.57
2023-07-08T20:40:11.588Z,3.40
2023-07-08T20:43:37.540Z,4.70
2023-07-08T20:47:02.606Z,4.60
2023-07-08T20:50:35.562Z,6.72
2023-07-08T20:54:00.600Z,7.10
2023-07-08T20:57:28.550Z,6.82
2023-07-08T21:00:56.621Z,6.50
2023-07-08T21:04:20.603Z,6.18
2023-07-08T21:07:44.612Z,8.27
2023-07-08T21:11:10.626Z,6.80
2023-07-08T21:14:34.720Z,5.20
2023-07-08T21:17:59.737Z,4.65
2023-07-08T21:21:25.594Z,8.95
2023-07-08T21:24:50.594Z,5.68
2023-07-08T21:28:15.640Z,7.05
2023-07-08T21:31:33.288Z,3.78
2023-07-08T21:34:51.585Z,4.30
2023-07-08T21:38:18.586Z,4.13
2023-07-08T21:41:42.599Z,3.78
2023-07-08T21:45:06.569Z,5.05
2023-07-08T21:48:31.753Z,5.43
2023-07-08T21:51:56.608Z,6.57
2023-07-08T21:55:33.701Z,6.32
2023-07-08T21:58:57.718Z,5.38
2023-07-08T22:02:27.635Z,5.25
2023-07-08T22:05:51.574Z,4.63
2023-07-08T22:09:25.644Z,5.45
2023-07-08T22:12:49.606Z,6.05
2023-07-08T22:16:19.802Z,4.97
2023-07-08T22:19:43.575Z,7.30
2023-07-08T22:23:07.640Z,5.97
2023-07-08T22:26:32.594Z,5.35
2023-07-08T22:29:56.653Z,4.15
2023-07-08T22:33:15.217Z,6.22
2023-07-08T22:36:33.837Z,7.07
2023-07-08T22:39:58.614Z,4.60
2023-07-08T22:43:29.686Z,7.35
2023-07-08T22:46:53.701Z,4.38
2023-07-08T22:50:18.683Z,6.13
2023-07-08T22:53:48.599Z,5.70
2023-07-08T22:57:13.658Z,4.43
2023-07-08T23:00:42.624Z,6.15
2023-07-08T23:04:06.719Z,6.80
2023-07-08T23:07:32.624Z,6.47
2023-07-08T23:10:56.674Z,4.05
2023-07-08T23:14:21.677Z,7.22
2023-07-08T23:17:45.703Z,6.85
2023-07-08T23:21:10.671Z,6.63
2023-07-08T23:24:35.646Z,6.40
2023-07-08T23:27:59.642Z,5.07
2023-07-08T23:31:29.729Z,6.00
2023-07-08T23:34:47.350Z,4.65
2023-07-08T23:38:06.674Z,4.20
2023-07-08T23:41:30.642Z,3.92
2023-07-08T23:44:54.698Z,3.13
2023-07-08T23:48:19.640Z,3.30
2023-07-08T23:51:44.656Z,3.22
2023-07-08T23:55:08.654Z,2.53
2023-07-08T23:58:40.625Z,3.53
